Time;durP1;ratioP1;P1;durP2;ratioP2;P2;SDS_P1;SDS_P2;PMS_P1;PMS_P2;Temp;Humidity;BMP_temperature;BMP_pressure;BME280_temperature;BME280_humidity;BME280_pressure;Samples;Min_cycle;Max_cycle;Signal;HPM_P1;HPM_P2
2022/10/30 00:01:33;;;;;;;10.38;4.50;;;;;;;12.46;81.55;97898.66;4936957;29;20047;-87
2022/10/30 00:03:59;;;;;;;8.85;4.70;;;;;;;12.24;81.07;97855.53;4953356;29;20043;-89
2022/10/30 00:06:25;;;;;;;7.32;4.72;;;;;;;12.41;81.39;97873.50;4937069;29;20113;-88
2022/10/30 00:08:51;;;;;;;7.60;4.75;;;;;;;12.19;81.34;97837.44;4954352;28;20468;-89
2022/10/30 00:11:17;;;;;;;15.75;5.53;;;;;;;12.48;80.96;97865.41;4936758;29;20043;-89
2022/10/30 00:13:43;;;;;;;7.77;4.70;;;;;;;12.57;81.11;97860.50;4952506;29;20540;-89
2022/10/30 00:16:10;;;;;;;7.67;5.10;;;;;;;12.50;81.20;97859.59;4968772;28;20071;-88
2022/10/30 00:18:37;;;;;;;8.60;4.40;;;;;;;12.42;81.23;97853.97;4936905;29;20046;-89
2022/10/30 00:21:11;;;;;;;8.13;4.43;;;;;;;12.25;81.02;97821.53;4936871;29;20049;-88
2022/10/30 00:23:38;;;;;;;7.95;4.60;;;;;;;12.53;81.33;97873.34;4936696;29;20540;-93
2022/10/30 00:26:06;;;;;;;8.75;5.40;;;;;;;12.60;81.31;97859.78;4920819;29;20043;-90
2022/10/30 00:28:32;;;;;;;9.07;5.18;;;;;;;12.35;81.23;97823.69;4952353;28;20146;-89
2022/10/30 00:31:00;;;;;;;11.68;5.28;;;;;;;12.57;80.76;97837.78;4936463;29;20063;-89
2022/10/30 00:33:27;;;;;;;8.15;5.28;;;;;;;12.56;80.59;97822.50;4952604;29;20039;-90
2022/10/30 00:35:53;;;;;;;7.53;4.97;;;;;;;12.77;80.28;97852.28;4936315;29;20050;-88
2022/10/30 00:38:19;;;;;;;11.60;5.50;;;;;;;12.71;80.59;97849.03;4952425;29;20544;-88
2022/10/30 00:40:48;;;;;;;11.23;5.60;;;;;;;12.78;80.39;97848.38;4952692;28;20580;-88
2022/10/30 00:43:35;;;;;;;10.13;4.97;;;;;;;12.74;80.44;97848.28;4951536;28;20198;-88
2022/10/30 00:46:27;;;;;;;9.70;5.15;;;;;;;12.69;80.54;97827.47;4953529;28;20074;-90
2022/10/30 00:49:01;;;;;;;7.47;5.13;;;;;;;12.82;80.14;97839.06;4936326;29;20074;-88
2022/10/30 00:51:30;;;;;;;8.95;5.30;;;;;;;12.67;80.10;97821.53;4953447;29;20058;-88
2022/10/30 00:53:59;;;;;;;9.10;5.28;;;;;;;12.69;80.04;97812.97;4951953;29;20035;-88
2022/10/30 00:56:26;;;;;;;11.50;5.43;;;;;;;12.66;79.95;97794.50;4952046;29;20520;-88
2022/10/30 00:59:14;;;;;;;8.93;5.20;;;;;;;12.71;80.13;97807.91;4952749;29;20062;-89
2022/10/30 01:01:44;;;;;;;9.25;6.03;;;;;;;12.62;80.20;97796.41;4953679;28;20051;-90
2022/10/30 01:04:13;;;;;;;8.63;5.35;;;;;;;12.79;79.94;97823.34;4952039;29;20461;-89
2022/10/30 01:06:44;;;;;;;8.02;5.65;;;;;;;12.65;79.75;97788.22;4920442;29;20047;-88
2022/10/30 01:09:10;;;;;;;12.10;5.03;;;;;;;12.68;79.15;97781.22;4922376;29;20043;-91
2022/10/30 01:11:36;;;;;;;8.63;5.38;;;;;;;12.73;79.41;97791.09;4956786;28;20051;-89
2022/10/30 01:14:07;;;;;;;13.43;6.20;;;;;;;12.63;79.56;97770.56;4955116;29;20540;-90
2022/10/30 01:16:43;;;;;;;12.90;6.38;;;;;;;12.78;79.40;97805.31;4955513;29;20099;-91
2022/10/30 01:19:32;;;;;;;7.53;5.05;;;;;;;12.74;79.56;97807.16;4947659;29;20039;-88
2022/10/30 01:22:16;;;;;;;16.58;6.07;;;;;;;12.71;79.58;97796.94;4939697;29;20055;-90
2022/10/30 01:25:20;;;;;;;10.40;5.90;;;;;;;12.61;79.75;97790.09;4954994;29;20043;-88
2022/10/30 01:28:18;;;;;;;10.48;6.10;;;;;;;12.29;79.66;97740.19;4956867;28;20055;-93
2022/10/30 01:31:05;;;;;;;10.90;5.80;;;;;;;12.46;79.21;97747.16;4958517;28;20070;-90
2022/10/30 01:33:56;;;;;;;8.95;5.63;;;;;;;12.50;79.09;97760.91;4975507;28;20050;-89
2022/10/30 01:36:31;;;;;;;11.98;5.78;;;;;;;12.66;79.15;97786.28;4942197;28;20090;-90
2022/10/30 01:41:29;;;;;;;10.02;5.88;;;;;;;12.69;79.39;97780.84;4975677;28;20047;-90
2022/10/30 01:44:06;;;;;;;15.07;7.03;;;;;;;12.76;78.77;97777.44;4942223;28;20045;-90
2022/10/30 01:47:00;;;;;;;10.57;6.45;;;;;;;12.63;78.94;97770.56;4926629;28;20042;-96
2022/10/30 01:49:48;;;;;;;10.55;6.43;;;;;;;12.82;79.02;97786.19;4942185;28;20054;-89
2022/10/30 01:52:21;;;;;;;12.98;6.10;;;;;;;12.90;78.60;97785.13;4958276;28;20042;-89
2022/10/30 01:55:26;;;;;;;10.98;6.32;;;;;;;12.90;78.79;97796.88;4942414;28;20043;-89
2022/10/30 01:58:49;;;;;;;12.45;6.47;;;;;;;12.94;78.47;97789.50;4937870;28;20061;-90
2022/10/30 02:01:17;;;;;;;9.40;5.93;;;;;;;12.85;78.42;97767.03;4918735;29;20126;-89
2022/10/30 02:03:45;;;;;;;11.20;5.78;;;;;;;12.78;78.14;97745.00;4903633;29;20118;-90
2022/10/30 02:06:11;;;;;;;13.27;6.15;;;;;;;12.97;78.01;97774.28;4918343;29;20480;-91
2022/10/30 02:08:37;;;;;;;12.48;6.43;;;;;;;12.92;78.04;97774.59;4934743;29;20056;-96
2022/10/30 02:11:04;;;;;;;12.00;5.82;;;;;;;12.86;77.99;97759.59;4934045;29;20039;-91
2022/10/30 02:13:40;;;;;;;;;;;;;;;13.03;77.84;97777.50;4935321;29;20046;-90
2022/10/30 02:16:08;;;;;;;10.52;5.82;;;;;;;12.82;77.61;97750.53;4935727;29;19922;-91
2022/10/30 02:21:03;;;;;;;9.52;5.63;;;;;;;13.00;77.57;97773.53;4933306;29;20043;-89
2022/10/30 02:23:30;;;;;;;10.25;6.15;;;;;;;12.93;77.58;97759.72;4929136;29;20035;-90
2022/10/30 02:25:56;;;;;;;11.05;6.35;;;;;;;13.04;76.85;97765.38;4948955;29;20055;-90
2022/10/30 02:28:22;;;;;;;10.80;5.93;;;;;;;13.01;77.13;97768.84;4917714;29;20048;-89
2022/10/30 02:30:48;;;;;;;11.33;5.60;;;;;;;12.86;76.48;97749.41;4934183;29;20594;-91
2022/10/30 02:33:16;;;;;;;8.70;4.95;;;;;;;12.88;75.51;97762.75;4918209;29;20039;-90
2022/10/30 02:35:43;;;;;;;7.18;4.65;;;;;;;12.95;75.63;97790.31;4932419;29;20055;-93
2022/10/30 02:38:09;;;;;;;11.40;4.90;;;;;;;12.83;75.12;97779.53;4922534;29;20067;-90
2022/10/30 02:40:35;;;;;;;8.18;4.35;;;;;;;12.79;74.09;97764.97;4955608;29;20097;-90
2022/10/30 02:43:01;;;;;;;10.37;4.70;;;;;;;12.88;73.51;97787.44;4907467;29;20044;-90
2022/10/30 02:45:29;;;;;;;8.75;4.07;;;;;;;12.78;72.77;97782.56;4912826;28;20556;-90
2022/10/30 02:47:55;;;;;;;6.13;3.90;;;;;;;12.73;73.36;97764.47;4974318;28;20050;-90
2022/10/30 02:50:21;;;;;;;8.13;3.57;;;;;;;12.82;72.84;97772.47;4974703;28;20051;-91
2022/10/30 02:52:47;;;;;;;6.47;3.90;;;;;;;12.70;72.64;97755.03;4973617;28;20508;-89
2022/10/30 02:55:13;;;;;;;6.80;3.72;;;;;;;12.77;72.38;97784.50;4941270;28;20290;-89
2022/10/30 02:57:40;;;;;;;5.60;3.90;;;;;;;12.83;72.53;97769.34;4941929;28;20047;-88
2022/10/30 03:00:07;;;;;;;7.17;3.67;;;;;;;12.62;71.35;97758.81;4925311;28;20047;-89
2022/10/30 03:05:02;;;;;;;10.90;3.67;;;;;;;12.64;71.30;97764.69;4974545;28;20053;-90
2022/10/30 03:07:29;;;;;;;8.60;3.80;;;;;;;12.62;71.88;97760.75;4956671;28;20427;-88
2022/10/30 03:09:55;;;;;;;8.10;3.80;;;;;;;12.60;70.87;97752.09;4941182;28;20057;-89
2022/10/30 03:12:22;;;;;;;10.68;3.30;;;;;;;12.62;70.03;97755.28;4941405;28;20038;-90
2022/10/30 03:14:48;;;;;;;6.38;2.47;;;;;;;12.29;69.47;97722.97;4957758;28;20078;-94
2022/10/30 03:17:14;;;;;;;11.00;2.90;;;;;;;12.49;70.10;97754.66;4936436;29;20533;-90
2022/10/30 03:19:40;;;;;;;6.28;2.80;;;;;;;12.30;70.49;97733.53;4936725;29;20510;-91
2022/10/30 03:22:08;;;;;;;4.45;2.75;;;;;;;12.33;70.82;97745.72;4936739;29;20055;-88
2022/10/30 03:24:37;;;;;;;12.20;3.20;;;;;;;12.35;70.87;97759.84;4937112;29;20432;-88
2022/10/30 03:27:03;;;;;;;9.68;3.30;;;;;;;12.26;70.71;97743.66;4936713;29;20043;-89
2022/10/30 03:29:29;;;;;;;10.00;3.30;;;;;;;12.45;70.61;97760.06;4920469;29;20166;-89
2022/10/30 03:31:55;;;;;;;5.47;3.23;;;;;;;12.31;70.46;97748.03;4952379;28;20058;-89
2022/10/30 03:34:23;;;;;;;6.30;3.60;;;;;;;12.36;70.88;97747.75;4920454;29;20077;-91
2022/10/30 03:36:50;;;;;;;;;;;;;;;12.30;71.81;97776.59;4921194;29;20417;-89
2022/10/30 03:39:16;;;;;;;4.67;2.90;;;;;;;12.15;71.68;97751.66;4936611;29;19922;-90
2022/10/30 03:41:44;;;;;;;4.93;3.15;;;;;;;12.10;71.52;97767.59;4936664;29;20070;-90
2022/10/30 03:44:11;;;;;;;;;;;;;;;12.31;70.29;97776.22;4920983;29;20043;-88
2022/10/30 03:46:37;;;;;;;8.52;3.20;;;;;;;12.15;71.14;97759.88;4952151;29;20344;-91
2022/10/30 03:49:17;;;;;;;5.45;3.15;;;;;;;12.10;70.05;97760.16;4920418;29;20456;-92
2022/10/30 03:51:43;;;;;;;7.65;2.90;;;;;;;11.88;70.10;97726.06;4920573;29;20118;-91
2022/10/30 03:54:09;;;;;;;5.65;2.40;;;;;;;12.08;69.63;97778.91;4938477;29;20055;-90
2022/10/30 03:56:35;;;;;;;10.82;3.40;;;;;;;12.01;69.86;97747.84;4937247;29;20040;-90
2022/10/30 03:59:03;;;;;;;10.35;2.95;;;;;;;12.11;69.54;97766.44;4953380;29;20043;-90
2022/10/30 04:01:29;;;;;;;8.17;2.43;;;;;;;11.97;68.57;97747.78;4921729;29;20043;-91
2022/10/30 04:03:56;;;;;;;10.07;2.47;;;;;;;11.88;68.87;97758.94;4953148;29;20043;-88
2022/10/30 04:06:24;;;;;;;7.03;3.10;;;;;;;11.79;69.12;97749.31;4953023;29;20035;-89
2022/10/30 04:08:52;;;;;;;5.43;2.35;;;;;;;11.94;69.16;97768.44;4937069;29;20047;-89
2022/10/30 04:11:19;;;;;;;4.22;2.00;;;;;;;11.87;68.80;97795.69;4937114;29;20081;-90
2022/10/30 04:13:45;;;;;;;7.63;2.65;;;;;;;11.51;68.89;97728.41;4953951;28;20163;-95
2022/10/30 04:16:12;;;;;;;6.95;2.25;;;;;;;11.86;69.24;97777.69;4954138;28;20039;-90
2022/10/30 04:18:38;;;;;;;7.60;2.75;;;;;;;11.76;69.55;97770.78;4938967;29;20138;-93
2022/10/30 04:21:26;;;;;;;9.38;2.78;;;;;;;11.35;70.04;97725.69;4929207;29;20067;-94
2022/10/30 04:24:28;;;;;;;4.45;2.40;;;;;;;11.26;70.14;97727.84;4958190;29;20053;-95
2022/10/30 04:27:03;;;;;;;9.75;2.40;;;;;;;11.46;70.08;97759.56;4945526;29;20055;-94
2022/10/30 04:29:58;;;;;;;4.47;1.95;;;;;;;11.75;69.54;97802.06;4945089;29;20394;-94
2022/10/30 04:32:34;;;;;;;5.53;2.45;;;;;;;11.55;69.47;97772.25;4902705;29;20055;-94
2022/10/30 04:37:55;;;;;;;7.20;2.33;;;;;;;11.55;69.78;97775.00;4853348;29;20108;-94
2022/10/30 04:44:54;;;;;;;6.05;2.25;;;;;;;11.65;68.24;97788.13;4894741;29;20036;-96
2022/10/30 04:54:58;;;;;;;6.05;1.90;;;;;;;11.35;67.92;97730.38;4958929;29;19913;-96
2022/10/30 04:58:17;;;;;;;2.90;1.70;;;;;;;11.35;67.29;97744.84;4853685;29;20121;-93
2022/10/30 05:00:47;;;;;;;7.15;3.10;;;;;;;11.52;67.38;97765.53;4851591;29;20104;-93
2022/10/30 05:03:21;;;;;;;4.45;1.85;;;;;;;11.33;66.98;97730.75;4838977;29;20169;-91
2022/10/30 05:05:56;;;;;;;8.35;1.52;;;;;;;11.21;67.67;97725.38;4846782;29;20049;-93
2022/10/30 05:08:23;;;;;;;4.03;1.45;;;;;;;11.18;68.28;97745.25;4815942;29;20139;-93
2022/10/30 05:10:49;;;;;;;4.03;1.63;;;;;;;11.37;67.42;97783.59;4846616;29;20746;-91
2022/10/30 05:13:15;;;;;;;8.13;1.83;;;;;;;10.92;67.84;97708.31;4832051;29;20081;-94
2022/10/30 05:15:42;;;;;;;2.95;1.50;;;;;;;10.93;68.60;97742.72;4838134;29;20030;-95
2022/10/30 05:18:08;;;;;;;6.45;1.77;;;;;;;11.01;68.66;97741.72;4819232;29;20053;-92
2022/10/30 05:20:34;;;;;;;6.00;1.80;;;;;;;10.95;67.98;97745.09;4833688;29;20053;-95
2022/10/30 05:23:06;;;;;;;4.78;1.80;;;;;;;11.26;69.57;97741.53;4816667;29;20501;-92
2022/10/30 05:25:32;;;;;;;4.38;1.88;;;;;;;11.87;67.57;97765.56;4833772;29;20041;-93
2022/10/30 05:41:38;;;;;;;4.38;1.75;;;;;;;10.75;68.43;97719.59;4864301;29;20036;-95
2022/10/30 05:44:14;;;;;;;4.70;1.63;;;;;;;10.71;69.38;97735.13;4895210;29;20052;-95
2022/10/30 05:47:14;;;;;;;11.23;2.22;;;;;;;11.05;69.14;97788.28;4897959;29;20045;-95
2022/10/30 05:49:45;;;;;;;3.95;1.92;;;;;;;10.99;69.56;97789.69;4861518;29;20079;-94
2022/10/30 05:52:33;;;;;;;6.65;2.30;;;;;;;10.84;68.55;97754.97;4882516;29;20072;-94
2022/10/30 05:55:48;;;;;;;6.05;1.95;;;;;;;11.11;68.81;97794.31;4904006;29;20051;-96
2022/10/30 05:59:08;;;;;;;6.47;2.00;;;;;;;11.17;69.04;97806.56;4915426;29;20087;-94
2022/10/30 06:01:36;;;;;;;3.88;1.80;;;;;;;10.99;68.02;97793.25;4900666;29;20052;-94
2022/10/30 06:05:03;;;;;;;13.02;1.88;;;;;;;11.22;67.20;97815.28;4916876;29;20051;-94
2022/10/30 06:08:12;;;;;;;5.05;1.77;;;;;;;10.76;67.82;97765.72;4861246;29;20024;-94
2022/10/30 06:10:38;;;;;;;5.32;1.80;;;;;;;10.55;68.76;97729.66;4866956;29;20037;-93
2022/10/30 06:13:30;;;;;;;3.70;1.92;;;;;;;10.52;68.40;97758.47;4874396;29;20539;-93
2022/10/30 06:16:11;;;;;;;11.60;1.90;;;;;;;10.68;68.89;97766.69;4854875;29;20047;-93
2022/10/30 06:19:07;;;;;;;2.43;1.40;;;;;;;10.76;69.92;97773.94;4862373;29;20087;-94
2022/10/30 06:21:40;;;;;;;8.80;2.13;;;;;;;10.74;69.38;97776.22;4868843;29;20289;-91
2022/10/30 06:24:33;;;;;;;7.65;2.20;;;;;;;10.94;69.16;97800.91;4853084;29;20210;-93
2022/10/30 06:27:24;;;;;;;21.23;3.67;;;;;;;10.88;70.86;97794.13;4878390;29;20045;-93
2022/10/30 06:29:53;;;;;;;9.97;2.50;;;;;;;10.96;72.04;97815.81;4862607;29;20045;-93
2022/10/30 06:32:21;;;;;;;7.22;2.03;;;;;;;10.44;70.29;97762.16;4860579;29;20087;-92
2022/10/30 06:34:58;;;;;;;4.97;1.38;;;;;;;10.40;71.28;97785.88;4879327;29;20041;-92
2022/10/30 06:37:27;;;;;;;6.80;1.50;;;;;;;10.33;71.74;97802.84;4844080;29;20167;-91
2022/10/30 06:39:53;;;;;;;5.22;1.30;;;;;;;10.17;71.92;97787.53;4851572;29;20151;-92
2022/10/30 06:42:54;;;;;;;3.95;1.48;;;;;;;10.16;71.57;97792.19;4843812;29;20065;-92
2022/10/30 06:45:41;;;;;;;3.17;1.35;;;;;;;10.33;70.44;97832.06;4917794;29;20031;-91
2022/10/30 06:48:09;;;;;;;2.78;2.05;;;;;;;10.09;71.19;97820.06;4889537;29;20082;-91
2022/10/30 06:50:40;;;;;;;7.15;1.60;;;;;;;9.88;71.77;97782.03;4908419;29;20044;-92
2022/10/30 06:53:07;;;;;;;2.80;1.30;;;;;;;9.91;69.63;97798.88;4893735;29;20078;-93
2022/10/30 06:55:33;;;;;;;3.78;1.60;;;;;;;9.81;69.20;97792.75;4912407;29;20046;-92
2022/10/30 06:58:29;;;;;;;3.53;1.23;;;;;;;9.96;67.80;97826.69;4870633;29;20049;-92
2022/10/30 07:01:07;;;;;;;1.83;1.10;;;;;;;9.99;69.06;97827.97;4870652;29;20041;-93
2022/10/30 07:03:55;;;;;;;4.32;1.27;;;;;;;9.89;67.42;97818.31;4923500;29;20086;-93
2022/10/30 07:06:44;;;;;;;2.20;1.23;;;;;;;9.98;65.46;97829.91;4945161;29;20048;-90
2022/10/30 07:09:11;;;;;;;3.13;1.20;;;;;;;10.14;66.43;97840.09;4929317;29;20039;-93
2022/10/30 07:11:42;;;;;;;3.40;1.40;;;;;;;10.17;64.85;97853.84;4926287;29;20027;-90
2022/10/30 07:14:41;;;;;;;1.85;1.10;;;;;;;9.95;64.29;97805.22;4960508;29;20046;-91
2022/10/30 07:17:16;;;;;;;3.50;1.30;;;;;;;10.04;62.31;97822.28;4920431;28;20042;-91
2022/10/30 07:19:54;;;;;;;5.05;1.20;;;;;;;10.11;61.93;97834.19;4958719;29;20036;-92
2022/10/30 07:22:21;;;;;;;;;;;;;;;10.13;60.12;97842.00;4950163;29;20047;-91
2022/10/30 07:24:58;;;;;;;5.25;1.10;;;;;;;9.95;59.77;97819.66;4938019;29;20360;-92
2022/10/30 07:27:49;;;;;;;7.72;1.08;;;;;;;10.00;59.35;97845.91;4908515;29;20056;-94
2022/10/30 07:30:28;;;;;;;1.42;1.10;;;;;;;10.03;59.42;97828.84;4919462;29;20138;-94
2022/10/30 07:33:20;;;;;;;5.63;1.40;;;;;;;9.81;58.84;97800.94;4906738;29;20158;-96
2022/10/30 07:35:55;;;;;;;4.28;0.90;;;;;;;9.85;58.46;97810.03;4916114;29;20063;-93
2022/10/30 07:38:49;;;;;;;4.07;1.63;;;;;;;9.62;57.98;97776.19;4893794;29;20115;-93
2022/10/30 07:41:30;;;;;;;1.85;1.10;;;;;;;9.70;57.96;97788.09;4893421;29;20068;-93
2022/10/30 07:44:19;;;;;;;0.95;0.85;;;;;;;9.56;57.54;97783.03;4882816;29;20509;-93
2022/10/30 07:46:52;;;;;;;1.35;0.80;;;;;;;9.53;58.03;97749.03;4898438;29;20558;-93
2022/10/30 07:49:37;;;;;;;5.78;1.30;;;;;;;9.70;58.10;97774.47;4878752;29;20052;-92
2022/10/30 07:52:06;;;;;;;2.50;1.00;;;;;;;9.67;56.71;97805.97;4897650;29;20064;-93
2022/10/30 07:54:34;;;;;;;0.97;0.83;;;;;;;9.83;56.41;97825.97;4884142;29;20054;-93
2022/10/30 07:57:26;;;;;;;8.93;1.08;;;;;;;9.75;54.56;97826.88;4853384;29;20053;-94
2022/10/30 08:00:15;;;;;;;1.77;0.85;;;;;;;9.51;55.50;97792.25;4910317;29;20056;-93
2022/10/30 08:02:59;;;;;;;3.40;1.20;;;;;;;9.46;54.60;97808.81;4928519;29;20092;-91
2022/10/30 08:05:37;;;;;;;9.52;1.00;;;;;;;9.38;55.60;97799.63;4870595;29;20048;-89
2022/10/30 08:08:07;;;;;;;4.80;1.05;;;;;;;9.28;56.16;97802.03;4866634;29;20171;-92
2022/10/30 08:10:33;;;;;;;;;;;;;;;9.45;55.07;97809.97;4887523;29;20050;-89
2022/10/30 08:13:01;;;;;;;2.65;1.10;;;;;;;9.42;55.15;97802.47;4912401;29;19923;-91
2022/10/30 08:15:27;;;;;;;9.05;1.30;;;;;;;9.24;56.20;97779.28;4848779;29;20507;-90
2022/10/30 08:17:54;;;;;;;3.67;1.10;;;;;;;9.29;55.25;97768.19;4914591;29;20048;-89
2022/10/30 08:20:23;;;;;;;5.78;1.05;;;;;;;9.45;55.31;97801.00;4885883;29;20096;-92
2022/10/30 08:22:55;;;;;;;2.38;0.82;;;;;;;9.33;55.41;97779.97;4871356;29;20235;-92
2022/10/30 08:25:29;;;;;;;3.15;1.00;;;;;;;9.46;55.75;97808.03;4892543;29;20052;-92
2022/10/30 08:27:57;;;;;;;1.75;0.90;;;;;;;9.58;55.24;97836.09;4895758;29;21106;-89
2022/10/30 08:30:28;;;;;;;3.72;1.00;;;;;;;9.55;54.71;97811.44;4870323;29;20053;-89
2022/10/30 08:32:57;;;;;;;3.70;1.10;;;;;;;9.28;56.71;97808.28;4878057;29;20052;-90
2022/10/30 08:35:47;;;;;;;;;;;;;;;9.34;55.44;97827.94;4869605;29;20064;-87
2022/10/30 08:38:13;;;;;;;3.63;1.02;;;;;;;9.27;56.59;97809.44;4868554;29;19927;-91
2022/10/30 08:40:42;;;;;;;1.02;0.88;;;;;;;9.16;55.21;97817.25;4863898;29;21085;-89
2022/10/30 08:43:08;;;;;;;1.40;1.10;;;;;;;9.15;55.86;97815.66;4869169;29;20048;-92
2022/10/30 08:45:35;;;;;;;4.03;1.42;;;;;;;9.10;56.00;97787.81;4919052;29;20036;-89
2022/10/30 08:48:24;;;;;;;5.10;1.40;;;;;;;9.45;57.19;97818.16;4897003;29;20048;-89
2022/10/30 08:50:51;;;;;;;9.18;1.80;;;;;;;9.26;56.26;97805.09;4904537;29;20047;-95
2022/10/30 08:53:26;;;;;;;5.75;2.22;;;;;;;9.34;56.80;97808.84;4911535;29;20056;-89
2022/10/30 08:55:53;;;;;;;3.72;1.40;;;;;;;9.42;55.45;97807.94;4935358;29;20476;-93
2022/10/30 08:58:29;;;;;;;5.78;1.20;;;;;;;9.37;56.33;97810.88;4921619;29;20082;-91
2022/10/30 09:00:56;;;;;;;5.32;1.80;;;;;;;9.21;57.14;97769.88;4922469;29;20035;-93
2022/10/30 09:03:43;;;;;;;2.63;1.27;;;;;;;9.29;56.35;97765.44;4958942;29;20600;-91
2022/10/30 09:06:41;;;;;;;3.08;1.40;;;;;;;9.60;56.71;97787.47;4921082;29;20094;-91
2022/10/30 09:09:30;;;;;;;2.78;1.35;;;;;;;9.49;56.22;97789.06;4935703;29;20047;-91
2022/10/30 09:12:00;;;;;;;4.68;1.35;;;;;;;9.59;57.22;97802.22;4939645;29;20119;-93
2022/10/30 09:14:27;;;;;;;3.25;1.20;;;;;;;9.48;56.62;97779.28;4941049;28;20069;-89
2022/10/30 09:16:55;;;;;;;1.27;1.10;;;;;;;9.22;57.18;97757.84;4933360;29;20043;-91
2022/10/30 09:19:23;;;;;;;;;;;;;;;9.50;56.90;97785.19;4955547;28;20051;-89
2022/10/30 09:21:49;;;;;;;3.20;1.05;;;;;;;9.28;56.26;97777.50;4948746;29;19922;-93
2022/10/30 09:24:22;;;;;;;9.48;1.50;;;;;;;9.25;57.50;97765.34;4925141;29;20043;-91
2022/10/30 09:26:48;;;;;;;4.60;1.50;;;;;;;9.30;57.00;97772.47;4924229;29;20156;-92
2022/10/30 09:29:34;;;;;;;3.45;1.88;;;;;;;9.15;56.97;97755.69;4937723;29;20047;-90
2022/10/30 09:32:08;;;;;;;2.88;1.50;;;;;;;9.34;56.31;97785.09;4950623;29;20047;-94
2022/10/30 09:34:45;;;;;;;6.15;1.80;;;;;;;9.12;57.59;97747.41;4900783;29;20107;-91
2022/10/30 09:37:23;;;;;;;6.50;2.05;;;;;;;9.33;57.03;97772.59;4925331;29;20063;-92
2022/10/30 09:39:55;;;;;;;7.03;2.13;;;;;;;9.10;56.76;97736.81;4904433;29;20063;-93
2022/10/30 09:42:47;;;;;;;7.10;2.08;;;;;;;9.36;57.16;97785.53;4908815;29;20052;-89
2022/10/30 09:45:39;;;;;;;8.18;2.78;;;;;;;9.37;56.94;97768.06;4933635;29;20091;-89
2022/10/30 09:48:26;;;;;;;4.45;2.08;;;;;;;9.61;57.64;97758.25;4955178;29;20071;-94
2022/10/30 09:51:36;;;;;;;10.15;1.73;;;;;;;9.43;56.58;97733.16;4920621;29;20048;-90
2022/10/30 09:54:05;;;;;;;7.22;1.77;;;;;;;9.51;56.10;97762.25;4934491;29;20040;-92
2022/10/30 09:57:05;;;;;;;4.80;1.60;;;;;;;9.41;56.46;97768.16;4914504;29;20035;-89
2022/10/30 09:59:55;;;;;;;5.78;2.65;;;;;;;9.35;57.51;97764.09;4915489;29;20052;-90
2022/10/30 10:03:01;;;;;;;7.18;3.25;;;;;;;9.41;56.78;97770.91;4942598;29;20047;-91
2022/10/30 10:05:45;;;;;;;10.77;2.30;;;;;;;9.32;56.83;97762.03;4894801;29;20044;-93
2022/10/30 10:08:51;;;;;;;7.20;1.45;;;;;;;9.09;56.61;97712.66;4930234;29;20070;-96
2022/10/30 10:11:41;;;;;;;2.65;1.00;;;;;;;9.32;57.30;97759.31;4934636;29;20044;-93
2022/10/30 10:14:25;;;;;;;2.67;1.10;;;;;;;9.44;57.78;97774.84;4921760;29;20087;-93
2022/10/30 10:16:53;;;;;;;4.47;1.05;;;;;;;9.27;57.98;97764.97;4934096;29;20043;-94
2022/10/30 10:19:21;;;;;;;6.03;1.30;;;;;;;9.27;58.58;97746.72;4919163;29;20115;-90
2022/10/30 10:22:04;;;;;;;2.15;1.15;;;;;;;9.21;58.16;97730.94;4914761;29;20052;-89
2022/10/30 10:24:38;;;;;;;2.67;1.23;;;;;;;9.33;57.87;97767.13;4926756;29;20091;-88
2022/10/30 10:27:39;;;;;;;2.58;1.40;;;;;;;9.43;56.88;97779.50;4934850;29;20420;-93
2022/10/30 10:30:09;;;;;;;3.42;1.20;;;;;;;9.14;52.67;97715.94;4932328;29;20523;-92
2022/10/30 10:32:56;;;;;;;3.28;1.23;;;;;;;9.39;51.72;97754.88;4916837;29;20040;-90
2022/10/30 10:35:54;;;;;;;5.43;1.20;;;;;;;9.68;50.08;97747.53;4941750;28;20163;-90
2022/10/30 10:38:26;;;;;;;5.40;1.00;;;;;;;9.59;50.11;97783.13;4931418;29;20142;-89
2022/10/30 10:41:04;;;;;;;4.78;1.00;;;;;;;9.43;46.96;97774.06;4915832;29;20065;-90
2022/10/30 10:43:52;;;;;;;1.48;1.02;;;;;;;9.45;46.60;97788.16;4929102;29;20035;-90
2022/10/30 10:46:47;;;;;;;5.25;0.90;;;;;;;9.31;45.17;97766.69;4916557;29;20050;-90
2022/10/30 10:49:42;;;;;;;2.13;0.90;;;;;;;8.98;45.57;97712.31;4913388;29;20067;-89
2022/10/30 10:53:01;;;;;;;3.85;0.98;;;;;;;8.88;46.50;97719.03;4954003;29;20047;-95
2022/10/30 10:55:48;;;;;;;10.25;3.20;;;;;;;9.48;50.47;97707.59;4824077;29;20051;-94
2022/10/30 10:58:37;;;;;;;2.23;1.00;;;;;;;9.74;45.97;97731.72;4806344;29;20078;-96
2022/10/30 11:01:13;;;;;;;3.75;1.10;;;;;;;9.14;47.07;97669.59;4799187;29;20071;-95
2022/10/30 11:07:26;;;;;;;4.40;1.05;;;;;;;9.31;48.11;97749.56;4829411;29;20050;-94
2022/10/30 11:13:34;;;;;;;;;;;;;;;;;;;;;
2022/10/30 11:16:42;;;;;;;13.55;1.60;;;;;;;8.61;55.46;97744.19;4781946;29;20054;-94
2022/10/30 11:19:13;;;;;;;6.20;1.25;;;;;;;8.12;58.87;97714.91;4795197;29;20055;-93
2022/10/30 11:21:54;;;;;;;10.52;1.60;;;;;;;7.81;60.69;97733.59;4804879;29;20157;-94
2022/10/30 11:24:39;;;;;;;4.40;0.90;;;;;;;7.66;64.72;97754.06;4790703;29;20054;-95
2022/10/30 11:27:23;;;;;;;2.88;0.90;;;;;;;7.55;64.41;97775.41;4785194;30;20048;-91
2022/10/30 11:30:03;;;;;;;3.58;1.38;;;;;;;7.42;65.74;97713.94;4770381;30;20043;-91
2022/10/30 11:32:33;;;;;;;2.83;1.38;;;;;;;7.64;65.44;97762.53;4843236;29;20408;-94
2022/10/30 11:35:09;;;;;;;1.92;1.10;;;;;;;7.23;64.31;97715.16;4839560;29;20048;-92
2022/10/30 11:37:39;;;;;;;1.45;0.90;;;;;;;7.73;64.34;97814.16;4881555;29;20053;-95
2022/10/30 11:40:06;;;;;;;6.57;1.70;;;;;;;7.60;66.63;97813.25;4869949;23;20045;-92
2022/10/30 11:42:34;;;;;;;1.85;1.05;;;;;;;7.26;68.37;97800.69;4904437;29;20051;-93
2022/10/30 11:45:04;;;;;;;1.85;0.98;;;;;;;7.13;69.13;97816.09;4918608;29;20181;-93
2022/10/30 11:47:37;;;;;;;4.07;1.30;;;;;;;6.62;67.64;97741.03;4919783;29;20050;-92
2022/10/30 11:50:15;;;;;;;3.08;1.10;;;;;;;6.87;66.92;97777.38;4921602;29;20050;-93
2022/10/30 11:52:43;;;;;;;3.22;1.27;;;;;;;6.90;66.71;97779.44;4906834;28;20039;-94
2022/10/30 11:55:19;;;;;;;4.75;1.05;;;;;;;6.69;66.76;97761.16;4924478;29;20454;-90
2022/10/30 11:57:51;;;;;;;4.70;0.95;;;;;;;6.84;65.53;97767.97;4925036;29;20051;-90
2022/10/30 12:00:39;;;;;;;1.70;1.00;;;;;;;6.87;64.49;97794.47;4905308;29;20041;-91
2022/10/30 12:03:33;;;;;;;1.58;0.77;;;;;;;7.20;61.83;97816.38;4934537;29;20054;-93
2022/10/30 12:06:38;;;;;;;1.85;1.13;;;;;;;6.84;60.71;97765.25;4916073;29;20051;-92
2022/10/30 12:09:18;;;;;;;1.13;0.70;;;;;;;6.53;58.41;97700.38;4871122;29;20037;-92
2022/10/30 12:11:45;;;;;;;2.83;1.33;;;;;;;6.71;58.30;97744.53;4839497;29;20048;-93
2022/10/30 12:14:26;;;;;;;2.58;1.10;;;;;;;6.89;59.66;97772.41;4846177;29;20140;-94
2022/10/30 12:16:57;;;;;;;1.35;0.70;;;;;;;6.71;57.81;97747.25;4885103;29;20051;-93
2022/10/30 12:19:25;;;;;;;4.47;1.27;;;;;;;7.05;57.33;97808.75;4920090;29;20110;-93
2022/10/30 12:21:55;;;;;;;;;;;;;;;7.09;57.47;97820.59;4923833;29;20095;-91
2022/10/30 12:24:38;;;;;;;2.00;1.00;;;;;;;7.10;56.24;97827.63;4936397;29;20024;-93
2022/10/30 12:27:16;;;;;;;3.63;1.17;;;;;;;6.85;56.65;97768.75;4899055;29;20552;-92
2022/10/30 12:30:00;;;;;;;2.83;1.10;;;;;;;6.88;55.32;97770.81;4914168;29;20070;-93
2022/10/30 12:32:52;;;;;;;3.80;0.90;;;;;;;6.95;56.83;97773.81;4907189;29;20050;-90
2022/10/30 12:35:37;;;;;;;2.60;1.00;;;;;;;7.14;55.95;97814.97;4897969;29;20789;-92
2022/10/30 12:38:16;;;;;;;2.28;0.98;;;;;;;6.92;54.86;97793.47;4883882;29;20052;-92
2022/10/30 12:41:14;;;;;;;8.90;1.10;;;;;;;6.73;55.08;97764.81;4916172;29;20052;-92
2022/10/30 12:43:44;;;;;;;5.65;1.45;;;;;;;6.89;55.13;97785.97;4901799;29;20032;-92
2022/10/30 12:46:25;;;;;;;5.72;1.48;;;;;;;7.09;55.39;97825.25;4887091;29;20059;-93
2022/10/30 12:49:08;;;;;;;5.13;1.75;;;;;;;6.76;56.58;97761.44;4901033;29;20167;-93
2022/10/30 12:51:46;;;;;;;7.68;2.80;;;;;;;6.85;55.34;97764.09;4915867;29;20577;-92
2022/10/30 12:54:23;;;;;;;24.23;6.60;;;;;;;7.00;56.08;97825.25;4897023;29;20817;-91
2022/10/30 12:57:02;;;;;;;18.27;5.95;;;;;;;6.42;57.94;97800.34;4914227;29;20067;-89
2022/10/30 12:59:55;;;;;;;8.52;3.75;;;;;;;6.39;62.12;97854.47;4895703;29;20039;-92
2022/10/30 13:02:59;;;;;;;8.83;4.03;;;;;;;6.15;61.90;97834.06;4916640;29;20044;-91
2022/10/30 13:05:47;;;;;;;26.30;9.50;;;;;;;6.02;64.52;97841.25;4951401;29;20066;-94
2022/10/30 13:08:39;;;;;;;24.17;9.00;;;;;;;5.69;66.11;97807.53;4937654;29;20067;-91